Terminal Aerodrome Forecast
Issued by NWS Mt. Holly, NJ

Home | Current Version | Previous Version | Text Only | Print | Product List | Glossary On
Versions: 1 2 3 4 5 6 7 8 9 10 11 12 13 14 15 16 17
000
FTUS41 KPHI 300900 AAB
TAFRDG
TAF AMD
KRDG 300912Z 3009/0106 00000KT 1/2SM FG OVC005
      TEMPO 3009/3013 2SM BR OVC008
     FM301300 00000KT 3SM BR SCT008
     FM301400 14005KT P6SM SCT050
      TEMPO 3018/3022 BKN050
     FM010000 00000KT P6SM BKN150=

USA.gov is the U.S. government's official web portal to all federal, state and local government web resources and services.